Terminal Aerodrome Forecast
Issued by NWS

Home | Current Version | Previous Version | Text Only | Print | Product List | Glossary On
Versions: 1 2 3 4 5 6 7 8 9 10 11 12 13 14 15 16 17 18 19 20 21 22 23 24 25 26
000
FTUS43 KAPX 202100 AAB
TAFPLN
TAF AMD
KPLN 202115Z 2021/2118 VRB02KT P6SM OVC070
     FM210100 VRB03KT 4SM -DZ OVC035
     FM210700 00000KT P6SM SCT035
     FM210900 00000KT 1SM BR SCT035
     FM211300 08004KT 3SM -SHRA BR OVC030=

USA.gov is the U.S. government's official web portal to all federal, state and local government web resources and services.